Time;durP1;ratioP1;P1;durP2;ratioP2;P2;SDS_P1;SDS_P2;PMS_P1;PMS_P2;Temp;Humidity;BMP_temperature;BMP_pressure;BME280_temperature;BME280_humidity;BME280_pressure;Samples;Min_cycle;Max_cycle;Signal;HPM_P1;HPM_P2
2021/08/01 00:00:35;;;;;;;17.10;9.55;;;;;;;;;;5091683;28;20044;-60
2021/08/01 00:03:21;;;;;;;14.88;8.32;;;;;;;;;;5092267;28;22400;-60
2021/08/01 00:05:48;;;;;;;14.57;9.27;;;;;;;;;;5097443;28;20487;-60
2021/08/01 00:08:14;;;;;;;13.75;9.07;;;;;;;;;;5095466;28;20075;-60
2021/08/01 00:10:40;;;;;;;14.73;8.43;;;;;;;;;;5095552;28;20453;-60
2021/08/01 00:13:07;;;;;;;14.38;8.30;;;;;;;;;;5095176;28;20088;-60
2021/08/01 00:15:33;;;;;;;14.27;9.23;;;;;;;;;;5091174;28;20043;-60
2021/08/01 00:18:01;;;;;;;14.18;8.88;;;;;;;;;;5079008;28;20446;-60
2021/08/01 00:20:28;;;;;;;13.43;9.10;;;;;;;;;;5095720;28;20044;-60
2021/08/01 00:22:54;;;;;;;14.38;8.70;;;;;;;;;;5093829;28;20051;-60
2021/08/01 00:25:20;;;;;;;15.02;8.77;;;;;;;;;;5077206;28;20047;-60
2021/08/01 00:27:47;;;;;;;21.98;9.95;;;;;;;;;;5092724;28;20052;-60
2021/08/01 00:30:13;;;;;;;12.95;9.10;;;;;;;;;;5093448;28;20044;-60
2021/08/01 00:32:40;;;;;;;13.18;7.75;;;;;;;;;;5097095;28;20075;-60
2021/08/01 00:35:08;;;;;;;14.57;9.30;;;;;;;;;;5095101;28;20084;-60
2021/08/01 00:37:34;;;;;;;21.88;11.00;;;;;;;;;;5094758;28;20113;-60
2021/08/01 00:40:00;;;;;;;14.27;8.82;;;;;;;;;;5076648;28;20051;-60
2021/08/01 00:42:27;;;;;;;17.48;8.95;;;;;;;;;;5072856;28;20067;-60
2021/08/01 00:44:53;;;;;;;15.63;9.30;;;;;;;;;;5079231;28;20044;-60
2021/08/01 00:47:20;;;;;;;12.30;7.93;;;;;;;;;;5077535;28;20041;-60
2021/08/01 00:49:46;;;;;;;16.50;8.88;;;;;;;;;;5078842;28;20086;-60
2021/08/01 00:52:15;;;;;;;14.80;8.82;;;;;;;;;;5064339;28;20063;-60
2021/08/01 00:54:41;;;;;;;14.18;9.02;;;;;;;;;;5096033;28;20047;-60
2021/08/01 00:57:09;;;;;;;17.05;8.95;;;;;;;;;;5080153;28;20059;-60
2021/08/01 00:59:36;;;;;;;12.73;8.52;;;;;;;;;;5092484;28;20044;-60
2021/08/01 01:02:13;;;;;;;11.55;8.02;;;;;;;;;;5082574;28;20120;-60
2021/08/01 01:04:55;;;;;;;13.48;8.27;;;;;;;;;;5098715;28;20044;-60
2021/08/01 01:07:23;;;;;;;13.80;8.80;;;;;;;;;;5097531;28;20051;-60
2021/08/01 01:09:54;;;;;;;18.27;8.40;;;;;;;;;;5078898;28;20074;-60
2021/08/01 01:12:28;;;;;;;14.57;8.32;;;;;;;;;;5094522;28;20048;-60
2021/08/01 01:14:57;;;;;;;12.38;8.45;;;;;;;;;;5103733;28;20416;-60
2021/08/01 01:17:28;;;;;;;15.80;8.73;;;;;;;;;;5098576;28;20047;-60
2021/08/01 01:19:54;;;;;;;12.68;7.93;;;;;;;;;;5098475;28;20055;-60
2021/08/01 01:22:30;;;;;;;12.07;8.23;;;;;;;;;;5098510;28;20128;-60
2021/08/01 01:25:20;;;;;;;12.05;7.60;;;;;;;;;;5098166;28;20047;-60
2021/08/01 01:27:51;;;;;;;14.05;8.35;;;;;;;;;;5095942;28;20117;-60
2021/08/01 01:30:17;;;;;;;14.25;9.00;;;;;;;;;;5095667;28;20442;-60
2021/08/01 01:32:51;;;;;;;12.82;8.52;;;;;;;;;;5082230;28;20044;-60
2021/08/01 01:35:18;;;;;;;14.50;8.98;;;;;;;;;;5080267;28;20075;-60
2021/08/01 01:37:47;;;;;;;17.63;8.95;;;;;;;;;;5078617;28;20040;-60
2021/08/01 01:40:23;;;;;;;14.48;9.27;;;;;;;;;;5078317;28;20050;-60
2021/08/01 01:43:02;;;;;;;13.57;8.82;;;;;;;;;;5079769;28;20133;-60
2021/08/01 01:45:30;;;;;;;15.48;9.02;;;;;;;;;;5077562;28;20068;-60
2021/08/01 01:47:57;;;;;;;14.65;8.65;;;;;;;;;;5100152;28;20200;-60
2021/08/01 01:50:24;;;;;;;15.40;8.35;;;;;;;;;;5079812;28;20046;-60
2021/08/01 01:52:53;;;;;;;12.95;8.18;;;;;;;;;;5079924;28;20099;-60
2021/08/01 01:55:21;;;;;;;14.50;9.10;;;;;;;;;;5079598;28;20047;-60
2021/08/01 01:57:49;;;;;;;14.93;8.73;;;;;;;;;;5095726;28;20036;-60
2021/08/01 02:00:18;;;;;;;13.60;8.95;;;;;;;;;;5094463;28;20065;-60
2021/08/01 02:02:44;;;;;;;12.90;8.38;;;;;;;;;;5099103;28;20131;-60
2021/08/01 02:05:31;;;;;;;15.60;7.68;;;;;;;;;;5088511;28;20211;-60
2021/08/01 02:08:03;;;;;;;13.43;7.78;;;;;;;;;;5097391;28;20088;-59
2021/08/01 02:10:56;;;;;;;16.92;8.75;;;;;;;;;;5097562;28;20079;-60
2021/08/01 02:13:48;;;;;;;13.30;8.85;;;;;;;;;;5097045;28;20063;-60
2021/08/01 02:16:14;;;;;;;12.48;8.52;;;;;;;;;;5080781;28;20086;-60
2021/08/01 02:18:51;;;;;;;14.40;8.63;;;;;;;;;;5074753;28;20044;-60
2021/08/01 02:21:22;;;;;;;12.35;8.38;;;;;;;;;;5076412;28;20055;-60
2021/08/01 02:23:50;;;;;;;13.88;8.10;;;;;;;;;;5081023;28;20544;-60
2021/08/01 02:26:19;;;;;;;12.38;8.18;;;;;;;;;;5077743;28;20039;-60
2021/08/01 02:28:49;;;;;;;10.90;7.28;;;;;;;;;;5097406;28;20048;-60
2021/08/01 02:31:16;;;;;;;12.07;8.32;;;;;;;;;;5096960;28;20067;-60
2021/08/01 02:33:42;;;;;;;17.08;8.55;;;;;;;;;;5076163;28;20036;-60
2021/08/01 02:36:15;;;;;;;16.75;8.82;;;;;;;;;;5094858;28;20080;-59
2021/08/01 02:38:46;;;;;;;11.23;7.30;;;;;;;;;;5079129;28;20495;-60
2021/08/01 02:41:33;;;;;;;13.07;8.20;;;;;;;;;;5096974;28;20051;-60
2021/08/01 02:44:11;;;;;;;11.25;6.90;;;;;;;;;;5048374;28;20075;-60
2021/08/01 02:46:39;;;;;;;14.35;8.10;;;;;;;;;;5096939;28;20040;-60
2021/08/01 02:49:07;;;;;;;14.98;8.25;;;;;;;;;;5078910;28;20035;-60
2021/08/01 02:51:33;;;;;;;10.20;7.53;;;;;;;;;;5092181;28;20476;-59
2021/08/01 02:54:01;;;;;;;13.32;7.43;;;;;;;;;;5098597;28;20051;-60
2021/08/01 02:56:30;;;;;;;18.65;8.38;;;;;;;;;;5078848;28;20083;-60
2021/08/01 02:58:57;;;;;;;12.68;7.65;;;;;;;;;;5095101;28;20486;-60
2021/08/01 03:01:24;;;;;;;13.68;7.97;;;;;;;;;;5096157;28;20058;-60
2021/08/01 03:03:50;;;;;;;10.05;6.80;;;;;;;;;;5076242;28;20109;-60
2021/08/01 03:06:18;;;;;;;13.43;7.07;;;;;;;;;;5089775;28;20040;-60
2021/08/01 03:08:44;;;;;;;12.30;8.00;;;;;;;;;;5098447;28;20063;-60
2021/08/01 03:11:19;;;;;;;12.02;7.95;;;;;;;;;;5096237;28;20113;-60
2021/08/01 03:13:45;;;;;;;12.57;7.57;;;;;;;;;;5078105;28;20052;-60
2021/08/01 03:16:12;;;;;;;14.48;7.70;;;;;;;;;;5077428;28;20067;-60
2021/08/01 03:18:38;;;;;;;11.15;7.47;;;;;;;;;;5090812;28;20492;-60
2021/08/01 03:21:05;;;;;;;16.70;8.13;;;;;;;;;;5077802;28;20043;-60
2021/08/01 03:23:51;;;;;;;9.93;6.95;;;;;;;;;;5093721;28;20079;-60
2021/08/01 03:26:24;;;;;;;16.17;7.50;;;;;;;;;;5077538;28;20113;-60
2021/08/01 03:28:50;;;;;;;13.85;8.20;;;;;;;;;;5095570;28;20040;-60
2021/08/01 03:31:17;;;;;;;13.48;7.30;;;;;;;;;;5094912;28;20090;-60
2021/08/01 03:33:51;;;;;;;11.90;7.27;;;;;;;;;;5074191;28;20045;-60
2021/08/01 03:36:21;;;;;;;16.33;7.20;;;;;;;;;;5073711;28;20072;-60
2021/08/01 03:39:06;;;;;;;10.75;7.50;;;;;;;;;;5102109;28;20048;-60
2021/08/01 03:41:41;;;;;;;14.50;7.85;;;;;;;;;;5113405;27;20056;-60
2021/08/01 03:44:11;;;;;;;12.82;7.57;;;;;;;;;;5076147;28;20074;-60
2021/08/01 03:46:38;;;;;;;20.00;8.60;;;;;;;;;;5095814;28;20056;-60
2021/08/01 03:49:04;;;;;;;15.05;7.78;;;;;;;;;;5095824;28;20517;-60
2021/08/01 03:51:31;;;;;;;11.93;8.15;;;;;;;;;;5090990;28;20063;-59
2021/08/01 03:53:57;;;;;;;13.32;7.47;;;;;;;;;;5097860;28;20094;-60
2021/08/01 03:56:23;;;;;;;14.63;7.97;;;;;;;;;;5095539;28;20107;-60
2021/08/01 03:58:49;;;;;;;11.95;6.85;;;;;;;;;;5095682;28;20048;-60
2021/08/01 04:01:16;;;;;;;12.30;7.90;;;;;;;;;;5077403;28;20494;-60
2021/08/01 04:03:43;;;;;;;12.38;7.68;;;;;;;;;;5074697;28;20047;-60
2021/08/01 04:06:10;;;;;;;13.55;7.65;;;;;;;;;;5094154;28;20048;-60
2021/08/01 04:08:36;;;;;;;14.00;7.70;;;;;;;;;;5096565;28;20120;-60
2021/08/01 04:11:04;;;;;;;15.68;8.57;;;;;;;;;;5095405;28;20118;-60
2021/08/01 04:13:30;;;;;;;12.40;7.60;;;;;;;;;;5094106;28;20036;-60
2021/08/01 04:15:56;;;;;;;10.40;7.18;;;;;;;;;;5074715;28;20036;-60
2021/08/01 04:18:23;;;;;;;15.43;7.13;;;;;;;;;;5073852;28;20052;-60
2021/08/01 04:20:49;;;;;;;15.23;9.20;;;;;;;;;;5097423;28;20055;-60
2021/08/01 04:23:15;;;;;;;15.18;8.98;;;;;;;;;;5073555;28;20488;-60
2021/08/01 04:25:42;;;;;;;11.10;7.85;;;;;;;;;;5098525;28;20055;-60
2021/08/01 04:28:08;;;;;;;12.63;8.68;;;;;;;;;;5099593;28;20046;-60
2021/08/01 04:30:34;;;;;;;13.40;8.60;;;;;;;;;;5095283;28;20048;-60
2021/08/01 04:33:01;;;;;;;14.00;8.20;;;;;;;;;;5100989;28;20078;-60
2021/08/01 04:35:27;;;;;;;14.10;8.43;;;;;;;;;;5098171;28;20051;-60
2021/08/01 04:37:53;;;;;;;14.45;7.70;;;;;;;;;;5099297;28;20124;-60
2021/08/01 04:40:20;;;;;;;16.48;8.45;;;;;;;;;;5099343;28;20082;-60
2021/08/01 04:42:47;;;;;;;9.40;7.05;;;;;;;;;;5078414;28;20042;-60
2021/08/01 04:45:13;;;;;;;12.32;7.88;;;;;;;;;;5097214;28;20052;-60
2021/08/01 04:47:39;;;;;;;12.60;7.28;;;;;;;;;;5100511;28;20083;-60
2021/08/01 04:50:06;;;;;;;13.90;7.57;;;;;;;;;;5098986;28;20486;-60
2021/08/01 04:52:32;;;;;;;9.48;6.82;;;;;;;;;;5099453;28;20068;-60
2021/08/01 04:54:59;;;;;;;10.77;6.32;;;;;;;;;;5096670;28;20055;-60
2021/08/01 04:57:25;;;;;;;10.75;6.95;;;;;;;;;;5094906;28;20055;-60
2021/08/01 04:59:51;;;;;;;15.75;6.60;;;;;;;;;;5100085;28;20416;-60
2021/08/01 05:02:17;;;;;;;12.07;6.22;;;;;;;;;;5098679;28;20055;-60
2021/08/01 05:04:44;;;;;;;11.85;6.45;;;;;;;;;;5098896;28;20040;-60
2021/08/01 05:07:10;;;;;;;10.77;6.55;;;;;;;;;;5098728;28;20442;-60
2021/08/01 05:09:36;;;;;;;15.82;6.10;;;;;;;;;;5094350;28;20071;-60
2021/08/01 05:12:03;;;;;;;9.75;5.55;;;;;;;;;;5099938;28;20094;-60
2021/08/01 05:14:30;;;;;;;11.10;5.65;;;;;;;;;;5107973;27;20472;-60
2021/08/01 05:16:57;;;;;;;8.35;5.47;;;;;;;;;;5092780;28;20489;-60
2021/08/01 05:19:23;;;;;;;8.70;4.75;;;;;;;;;;5098534;28;20048;-60
2021/08/01 05:21:49;;;;;;;8.00;5.30;;;;;;;;;;5095917;28;20097;-60
2021/08/01 05:24:16;;;;;;;9.98;5.40;;;;;;;;;;5110765;28;20077;-60
2021/08/01 05:26:44;;;;;;;6.60;4.32;;;;;;;;;;5097515;28;20535;-60
2021/08/01 05:29:10;;;;;;;5.25;3.92;;;;;;;;;;5080780;28;20052;-60
2021/08/01 05:31:36;;;;;;;8.60;4.25;;;;;;;;;;5096790;28;20044;-60
2021/08/01 05:34:03;;;;;;;10.02;4.53;;;;;;;;;;5096629;28;20509;-60
2021/08/01 05:36:30;;;;;;;5.63;3.25;;;;;;;;;;5094000;28;20127;-60
2021/08/01 05:38:56;;;;;;;9.68;4.20;;;;;;;;;;5100328;28;20051;-60
2021/08/01 05:41:24;;;;;;;5.63;3.53;;;;;;;;;;5095315;28;20047;-61
2021/08/01 05:43:51;;;;;;;5.25;3.47;;;;;;;;;;5097844;28;20419;-60
2021/08/01 05:46:18;;;;;;;6.90;3.35;;;;;;;;;;5097265;28;20551;-60
2021/08/01 05:48:44;;;;;;;6.15;3.42;;;;;;;;;;5075381;28;20118;-60
2021/08/01 05:51:10;;;;;;;5.53;3.00;;;;;;;;;;5097362;28;20044;-60
2021/08/01 05:53:36;;;;;;;4.28;2.50;;;;;;;;;;5098912;28;20059;-60
2021/08/01 05:56:09;;;;;;;5.32;2.55;;;;;;;;;;5097930;28;20040;-60
2021/08/01 05:58:35;;;;;;;3.92;2.28;;;;;;;;;;5097508;28;20554;-61
2021/08/01 06:01:16;;;;;;;10.38;2.85;;;;;;;;;;5101060;28;20109;-61
2021/08/01 06:03:43;;;;;;;5.72;2.42;;;;;;;;;;5082582;28;20556;-60
2021/08/01 06:06:10;;;;;;;5.68;2.72;;;;;;;;;;5103447;28;20746;-60
2021/08/01 06:08:36;;;;;;;6.57;2.58;;;;;;;;;;5102946;28;20127;-60
2021/08/01 06:11:04;;;;;;;7.00;2.60;;;;;;;;;;5102209;28;20036;-61
2021/08/01 06:13:31;;;;;;;9.32;2.63;;;;;;;;;;5083783;28;20491;-61
2021/08/01 06:15:57;;;;;;;11.63;2.60;;;;;;;;;;5093640;28;20043;-60
2021/08/01 06:18:23;;;;;;;5.82;2.63;;;;;;;;;;5109590;28;20052;-61
2021/08/01 06:20:50;;;;;;;4.25;2.30;;;;;;;;;;5099501;28;20079;-61
2021/08/01 06:23:16;;;;;;;8.88;2.95;;;;;;;;;;5097505;28;20055;-60
2021/08/01 06:25:42;;;;;;;5.35;2.60;;;;;;;;;;5096819;28;20093;-60
2021/08/01 06:28:09;;;;;;;5.07;2.13;;;;;;;;;;5097387;28;20078;-61
2021/08/01 06:30:35;;;;;;;6.45;2.58;;;;;;;;;;5092951;28;20045;-60
2021/08/01 06:33:01;;;;;;;6.05;2.83;;;;;;;;;;5098824;28;20056;-60
2021/08/01 06:35:28;;;;;;;4.90;2.45;;;;;;;;;;5096063;28;20079;-61
2021/08/01 06:37:54;;;;;;;3.83;2.42;;;;;;;;;;5097102;28;20040;-60
2021/08/01 06:40:20;;;;;;;4.93;2.40;;;;;;;;;;5096807;28;20100;-60
2021/08/01 06:42:46;;;;;;;3.60;2.05;;;;;;;;;;5094513;28;20060;-61
2021/08/01 06:45:13;;;;;;;19.73;3.42;;;;;;;;;;5095420;28;20098;-60
2021/08/01 06:47:39;;;;;;;3.88;1.95;;;;;;;;;;5097785;28;20044;-60
2021/08/01 06:50:06;;;;;;;4.13;1.77;;;;;;;;;;5085722;28;20072;-58
2021/08/01 06:52:32;;;;;;;8.10;1.80;;;;;;;;;;5076426;28;20663;-59
2021/08/01 06:54:58;;;;;;;3.08;2.25;;;;;;;;;;5095275;28;20411;-59
2021/08/01 06:57:25;;;;;;;4.25;1.85;;;;;;;;;;5074730;28;20457;-60
2021/08/01 06:59:51;;;;;;;4.63;1.80;;;;;;;;;;5097851;28;20048;-60
2021/08/01 07:02:17;;;;;;;7.55;2.10;;;;;;;;;;5096464;28;20048;-60
2021/08/01 07:04:44;;;;;;;3.95;2.20;;;;;;;;;;5096002;28;20508;-60
2021/08/01 07:07:10;;;;;;;3.15;1.88;;;;;;;;;;5078091;28;20071;-60
2021/08/01 07:09:40;;;;;;;2.83;1.90;;;;;;;;;;5092261;28;20036;-59
2021/08/01 07:12:10;;;;;;;3.90;1.80;;;;;;;;;;5096081;28;20056;-59
2021/08/01 07:14:36;;;;;;;7.25;1.75;;;;;;;;;;5096779;28;20052;-59
2021/08/01 07:17:03;;;;;;;3.70;2.00;;;;;;;;;;5095796;28;20043;-59
2021/08/01 07:19:29;;;;;;;5.32;2.10;;;;;;;;;;5095965;28;20047;-60
2021/08/01 07:21:55;;;;;;;5.65;1.65;;;;;;;;;;5076429;28;20043;-59
2021/08/01 07:24:22;;;;;;;2.45;1.42;;;;;;;;;;5092606;28;20124;-59
2021/08/01 07:26:51;;;;;;;4.10;1.70;;;;;;;;;;5097703;28;20075;-60
2021/08/01 07:29:17;;;;;;;3.70;1.42;;;;;;;;;;5094232;28;20083;-59
2021/08/01 07:31:43;;;;;;;6.80;1.60;;;;;;;;;;5076151;28;20047;-60
2021/08/01 07:34:09;;;;;;;2.10;1.42;;;;;;;;;;5097052;28;20518;-60
2021/08/01 07:36:36;;;;;;;4.75;1.50;;;;;;;;;;5072551;28;20048;-60
2021/08/01 07:39:02;;;;;;;4.43;1.63;;;;;;;;;;5096997;28;20040;-58
2021/08/01 07:41:29;;;;;;;4.13;1.65;;;;;;;;;;5095534;28;20052;-61
2021/08/01 07:43:55;;;;;;;3.45;1.80;;;;;;;;;;5095463;28;20054;-59
2021/08/01 07:46:21;;;;;;;1.98;1.40;;;;;;;;;;5095588;28;20052;-60
2021/08/01 07:48:48;;;;;;;3.88;1.75;;;;;;;;;;5093231;28;20048;-60
2021/08/01 07:51:14;;;;;;;7.45;2.13;;;;;;;;;;5093454;28;20048;-60
2021/08/01 07:53:40;;;;;;;4.85;1.70;;;;;;;;;;5096659;28;20052;-60
2021/08/01 07:56:07;;;;;;;6.47;2.45;;;;;;;;;;5095249;28;20411;-60
2021/08/01 07:58:33;;;;;;;6.90;1.80;;;;;;;;;;5093534;28;20119;-59
2021/08/01 08:00:59;;;;;;;5.78;1.52;;;;;;;;;;5075791;28;20084;-59
2021/08/01 08:03:26;;;;;;;4.82;1.60;;;;;;;;;;5091479;28;20051;-60
2021/08/01 08:05:52;;;;;;;3.10;1.60;;;;;;;;;;5097146;28;20036;-59
2021/08/01 08:08:18;;;;;;;2.80;1.90;;;;;;;;;;5093689;28;20086;-61
2021/08/01 08:10:45;;;;;;;6.80;1.80;;;;;;;;;;5075364;28;20059;-59
2021/08/01 08:13:11;;;;;;;3.72;1.70;;;;;;;;;;5076990;28;20453;-60
2021/08/01 08:15:37;;;;;;;4.90;1.67;;;;;;;;;;5073105;28;20052;-60
2021/08/01 08:18:04;;;;;;;3.90;1.90;;;;;;;;;;5096085;28;20067;-60
2021/08/01 08:20:31;;;;;;;3.45;1.85;;;;;;;;;;5095356;28;20448;-59
2021/08/01 08:22:57;;;;;;;2.90;1.95;;;;;;;;;;5094857;28;20388;-59
2021/08/01 08:25:24;;;;;;;3.42;2.00;;;;;;;;;;5076763;28;20134;-60
2021/08/01 08:27:50;;;;;;;2.22;1.52;;;;;;;;;;5093015;28;20414;-61
2021/08/01 08:30:16;;;;;;;3.15;1.60;;;;;;;;;;5092679;28;20051;-60
2021/08/01 08:32:43;;;;;;;2.85;1.50;;;;;;;;;;5094971;28;20113;-59
2021/08/01 08:35:09;;;;;;;4.45;1.40;;;;;;;;;;5092655;28;20062;-59
2021/08/01 08:37:45;;;;;;;3.15;1.85;;;;;;;;;;5094678;28;20060;-60
2021/08/01 08:40:13;;;;;;;4.82;1.83;;;;;;;;;;5089815;28;20104;-60
2021/08/01 08:42:39;;;;;;;2.90;1.60;;;;;;;;;;5095052;28;20040;-60
2021/08/01 08:45:06;;;;;;;5.13;1.73;;;;;;;;;;5108294;28;20047;-60
2021/08/01 08:47:36;;;;;;;3.45;2.03;;;;;;;;;;5097612;28;20079;-60
2021/08/01 08:50:04;;;;;;;2.80;1.77;;;;;;;;;;5096783;28;20123;-59
2021/08/01 08:52:32;;;;;;;6.22;1.80;;;;;;;;;;5093584;28;20056;-60
2021/08/01 08:54:59;;;;;;;6.13;1.70;;;;;;;;;;5103233;28;20066;-60
2021/08/01 08:57:31;;;;;;;6.28;1.92;;;;;;;;;;5091189;28;20083;-59
2021/08/01 09:00:07;;;;;;;4.60;1.65;;;;;;;;;;5071513;28;20044;-60
2021/08/01 09:02:34;;;;;;;6.38;2.13;;;;;;;;;;5093975;28;20094;-60
2021/08/01 09:05:01;;;;;;;5.70;2.10;;;;;;;;;;5094909;28;20047;-60
2021/08/01 09:07:27;;;;;;;3.50;1.65;;;;;;;;;;5097196;28;20048;-61
2021/08/01 09:09:54;;;;;;;3.15;1.95;;;;;;;;;;5092806;28;20047;-61
2021/08/01 09:12:21;;;;;;;3.55;1.73;;;;;;;;;;5095136;28;20656;-60
2021/08/01 09:14:47;;;;;;;6.68;1.52;;;;;;;;;;5100491;28;20044;-59
2021/08/01 09:17:34;;;;;;;3.20;1.70;;;;;;;;;;5098283;28;20055;-61
2021/08/01 09:20:20;;;;;;;2.92;1.70;;;;;;;;;;5098291;28;20097;-61
2021/08/01 09:23:02;;;;;;;3.25;1.60;;;;;;;;;;5098332;28;20487;-61
2021/08/01 09:25:32;;;;;;;6.10;1.70;;;;;;;;;;5096812;28;20487;-61
2021/08/01 09:28:07;;;;;;;6.97;1.63;;;;;;;;;;5096674;28;20067;-60
2021/08/01 09:30:47;;;;;;;5.22;2.30;;;;;;;;;;5093942;28;20060;-61
2021/08/01 09:33:16;;;;;;;5.55;1.70;;;;;;;;;;5097766;28;20074;-61
2021/08/01 09:35:43;;;;;;;3.80;1.73;;;;;;;;;;5108891;28;20058;-61
2021/08/01 09:38:09;;;;;;;3.80;1.92;;;;;;;;;;5099530;28;20400;-61
2021/08/01 09:40:36;;;;;;;6.03;1.88;;;;;;;;;;5096858;28;20146;-61
2021/08/01 09:43:21;;;;;;;5.82;1.75;;;;;;;;;;5097148;28;20047;-61
2021/08/01 09:45:57;;;;;;;3.10;1.90;;;;;;;;;;5081599;28;20067;-61
2021/08/01 09:48:24;;;;;;;3.25;1.80;;;;;;;;;;5076673;28;20074;-61
2021/08/01 09:51:06;;;;;;;2.97;1.70;;;;;;;;;;5100073;28;20116;-61
2021/08/01 09:53:33;;;;;;;3.83;1.88;;;;;;;;;;5096972;28;20407;-61
2021/08/01 09:56:13;;;;;;;5.30;2.10;;;;;;;;;;5097236;28;20044;-61
2021/08/01 09:58:39;;;;;;;4.72;1.90;;;;;;;;;;5098003;28;20044;-61
2021/08/01 10:01:06;;;;;;;6.18;1.83;;;;;;;;;;5097946;28;20078;-61
2021/08/01 10:03:42;;;;;;;6.47;1.60;;;;;;;;;;5076045;28;20036;-61
2021/08/01 10:06:08;;;;;;;3.63;2.00;;;;;;;;;;5123615;27;20099;-61
2021/08/01 10:08:36;;;;;;;4.53;2.00;;;;;;;;;;5098251;28;20048;-61
2021/08/01 10:11:10;;;;;;;3.20;1.92;;;;;;;;;;5097627;28;20040;-61
2021/08/01 10:13:39;;;;;;;3.00;1.43;;;;;;;;;;5079757;28;20040;-61
2021/08/01 10:16:08;;;;;;;4.18;2.22;;;;;;;;;;5097632;28;20061;-61
2021/08/01 10:18:34;;;;;;;4.47;1.60;;;;;;;;;;5077347;28;20048;-61
2021/08/01 10:21:01;;;;;;;3.70;1.90;;;;;;;;;;5099065;28;20086;-61
2021/08/01 10:23:27;;;;;;;2.97;1.83;;;;;;;;;;5078555;28;20131;-61
2021/08/01 10:25:54;;;;;;;6.10;2.20;;;;;;;;;;5097203;28;20047;-61
2021/08/01 10:28:23;;;;;;;2.75;1.67;;;;;;;;;;5097338;28;20081;-61
2021/08/01 10:30:51;;;;;;;4.70;1.63;;;;;;;;;;5077050;28;20047;-61
2021/08/01 10:33:22;;;;;;;3.78;2.00;;;;;;;;;;5094890;28;20067;-61
2021/08/01 10:35:52;;;;;;;3.47;2.05;;;;;;;;;;5097669;28;20121;-61
2021/08/01 10:38:21;;;;;;;5.35;2.10;;;;;;;;;;5097039;28;20044;-61
2021/08/01 10:40:52;;;;;;;5.28;1.73;;;;;;;;;;5097035;28;20383;-61
2021/08/01 10:43:20;;;;;;;3.80;1.90;;;;;;;;;;5095607;28;20062;-61
2021/08/01 10:45:46;;;;;;;5.15;2.03;;;;;;;;;;5092624;28;20071;-61
2021/08/01 10:48:13;;;;;;;6.93;2.13;;;;;;;;;;5096059;28;20048;-61
2021/08/01 10:50:41;;;;;;;3.50;1.98;;;;;;;;;;5098145;28;20052;-61
2021/08/01 10:53:19;;;;;;;4.93;2.40;;;;;;;;;;5096671;28;20543;-61
2021/08/01 10:55:46;;;;;;;8.15;3.17;;;;;;;;;;5096696;28;20040;-61
2021/08/01 10:58:16;;;;;;;3.67;2.42;;;;;;;;;;5096751;28;20487;-61
2021/08/01 11:01:01;;;;;;;8.48;3.40;;;;;;;;;;5093475;28;20116;-61
2021/08/01 11:03:29;;;;;;;10.57;6.75;;;;;;;;;;5092778;28;20049;-61
2021/08/01 11:05:55;;;;;;;14.73;9.05;;;;;;;;;;5098183;28;20377;-61
2021/08/01 11:08:22;;;;;;;9.57;7.15;;;;;;;;;;5096530;28;20481;-61
2021/08/01 11:11:08;;;;;;;10.77;7.60;;;;;;;;;;5096571;28;20040;-61
2021/08/01 11:13:36;;;;;;;8.10;5.50;;;;;;;;;;5096496;28;20373;-61
2021/08/01 11:16:03;;;;;;;9.60;6.32;;;;;;;;;;5095940;28;20042;-61
2021/08/01 11:18:33;;;;;;;12.27;3.60;;;;;;;;;;5092185;28;20051;-61
2021/08/01 11:21:03;;;;;;;5.28;3.22;;;;;;;;;;5098196;28;20055;-61
2021/08/01 11:23:48;;;;;;;4.07;2.55;;;;;;;;;;5096749;28;20503;-61
2021/08/01 11:26:15;;;;;;;3.78;2.33;;;;;;;;;;5094728;28;20040;-61
2021/08/01 11:28:42;;;;;;;5.35;2.65;;;;;;;;;;5096090;28;20074;-61
2021/08/01 11:31:19;;;;;;;7.20;2.70;;;;;;;;;;5096104;28;20047;-61
2021/08/01 11:33:49;;;;;;;5.80;3.03;;;;;;;;;;5092986;28;20463;-61
2021/08/01 11:36:16;;;;;;;5.88;3.92;;;;;;;;;;5094218;28;20049;-61
2021/08/01 11:38:54;;;;;;;5.70;2.92;;;;;;;;;;5097804;28;20048;-61
2021/08/01 11:41:33;;;;;;;6.07;2.85;;;;;;;;;;5095922;28;20075;-61
2021/08/01 11:44:00;;;;;;;11.73;3.33;;;;;;;;;;5096003;28;21084;-61
2021/08/01 11:46:27;;;;;;;5.20;2.45;;;;;;;;;;5095910;28;20059;-61
2021/08/01 11:49:06;;;;;;;5.90;2.83;;;;;;;;;;5094102;28;20126;-60
2021/08/01 11:51:32;;;;;;;6.93;3.03;;;;;;;;;;5075067;28;20072;-60
2021/08/01 11:53:59;;;;;;;8.25;3.30;;;;;;;;;;5097749;28;20058;-61
2021/08/01 11:56:26;;;;;;;5.35;3.13;;;;;;;;;;5095728;28;20043;-61
2021/08/01 11:58:55;;;;;;;5.18;3.33;;;;;;;;;;5095695;28;20036;-60
2021/08/01 12:01:22;;;;;;;6.18;3.80;;;;;;;;;;5094285;28;20043;-60
2021/08/01 12:03:48;;;;;;;8.10;3.58;;;;;;;;;;5091345;28;20064;-60
2021/08/01 12:06:34;;;;;;;4.40;3.15;;;;;;;;;;5093977;28;20048;-60
2021/08/01 12:09:00;;;;;;;5.47;3.30;;;;;;;;;;5079537;28;20499;-61
2021/08/01 12:11:26;;;;;;;4.15;3.05;;;;;;;;;;5095592;28;20068;-61
2021/08/01 12:14:12;;;;;;;6.35;3.50;;;;;;;;;;5095509;28;20082;-60
2021/08/01 12:16:51;;;;;;;9.82;3.15;;;;;;;;;;5095528;28;20044;-60
2021/08/01 12:19:18;;;;;;;8.50;3.40;;;;;;;;;;5095395;28;20506;-61
2021/08/01 12:21:45;;;;;;;7.20;3.30;;;;;;;;;;5092452;28;20079;-60
2021/08/01 12:24:30;;;;;;;4.97;2.33;;;;;;;;;;5094838;28;20093;-60
2021/08/01 12:27:23;;;;;;;7.05;2.97;;;;;;;;;;5097003;28;20086;-60
2021/08/01 12:29:50;;;;;;;5.53;2.78;;;;;;;;;;5092692;28;20063;-60
2021/08/01 12:32:17;;;;;;;4.40;2.63;;;;;;;;;;5095074;28;20127;-61
2021/08/01 12:34:43;;;;;;;3.63;2.70;;;;;;;;;;5095284;28;20040;-61
2021/08/01 12:37:10;;;;;;;7.97;3.35;;;;;;;;;;5095211;28;20051;-61
2021/08/01 12:39:46;;;;;;;4.43;2.63;;;;;;;;;;5089663;28;20129;-60
2021/08/01 12:42:12;;;;;;;6.07;2.72;;;;;;;;;;5076429;28;20044;-60
2021/08/01 12:44:51;;;;;;;7.20;2.95;;;;;;;;;;5094864;28;20044;-60
2021/08/01 12:47:17;;;;;;;4.72;2.95;;;;;;;;;;5098999;28;20101;-60
2021/08/01 12:49:44;;;;;;;3.15;2.20;;;;;;;;;;5099201;28;20101;-60
2021/08/01 12:52:10;;;;;;;3.83;2.60;;;;;;;;;;5099101;28;20047;-60
2021/08/01 12:54:37;;;;;;;5.35;2.03;;;;;;;;;;5095064;28;20072;-60
2021/08/01 12:57:04;;;;;;;5.40;3.05;;;;;;;;;;5082362;28;20048;-60
2021/08/01 12:59:30;;;;;;;6.20;2.78;;;;;;;;;;5099625;28;20055;-60
2021/08/01 13:01:57;;;;;;;4.32;2.70;;;;;;;;;;5098743;28;20051;-60
2021/08/01 13:04:23;;;;;;;4.38;2.40;;;;;;;;;;5098999;28;20074;-60
2021/08/01 13:06:59;;;;;;;3.67;2.70;;;;;;;;;;5078620;28;20072;-60
2021/08/01 13:09:26;;;;;;;4.13;2.63;;;;;;;;;;5095313;28;20470;-61
2021/08/01 13:11:52;;;;;;;16.10;2.60;;;;;;;;;;5100887;28;20082;-61
2021/08/01 13:14:30;;;;;;;6.05;2.67;;;;;;;;;;5098694;28;20040;-61
2021/08/01 13:16:57;;;;;;;4.40;2.33;;;;;;;;;;5080567;28;20075;-61
2021/08/01 13:19:25;;;;;;;4.38;2.65;;;;;;;;;;5097294;28;20147;-60
2021/08/01 13:22:04;;;;;;;6.28;2.40;;;;;;;;;;5077019;28;20036;-61
2021/08/01 13:24:35;;;;;;;7.25;3.40;;;;;;;;;;5094320;28;22664;-61
2021/08/01 13:27:09;;;;;;;3.88;2.35;;;;;;;;;;5107951;28;20486;-61
2021/08/01 13:29:37;;;;;;;5.05;2.63;;;;;;;;;;5099155;28;20075;-60
2021/08/01 13:32:13;;;;;;;5.75;2.20;;;;;;;;;;5098483;28;20476;-60
2021/08/01 13:34:41;;;;;;;7.18;2.25;;;;;;;;;;5098461;28;20484;-60
2021/08/01 13:37:37;;;;;;;4.43;2.38;;;;;;;;;;5098409;28;20466;-60
2021/08/01 13:40:04;;;;;;;5.63;2.63;;;;;;;;;;5076973;28;20078;-60
2021/08/01 13:42:42;;;;;;;7.05;2.42;;;;;;;;;;5093950;28;20063;-60
2021/08/01 13:45:24;;;;;;;3.15;2.15;;;;;;;;;;5108063;28;20560;-60
2021/08/01 13:47:52;;;;;;;4.43;2.20;;;;;;;;;;5098929;28;20124;-60
2021/08/01 13:50:19;;;;;;;6.03;2.67;;;;;;;;;;5098001;28;20499;-60
2021/08/01 13:52:46;;;;;;;3.08;2.28;;;;;;;;;;5098093;28;20056;-60
2021/08/01 13:55:12;;;;;;;3.70;2.42;;;;;;;;;;5097930;28;20050;-61
2021/08/01 13:57:39;;;;;;;5.72;2.13;;;;;;;;;;5091317;28;20040;-61
2021/08/01 14:00:06;;;;;;;4.15;2.25;;;;;;;;;;5098701;28;20056;-60
2021/08/01 14:02:39;;;;;;;6.97;2.30;;;;;;;;;;5099171;28;20044;-60
2021/08/01 14:05:05;;;;;;;7.25;2.33;;;;;;;;;;5097730;28;20078;-61
2021/08/01 14:07:32;;;;;;;5.75;2.30;;;;;;;;;;5097632;28;20052;-61
2021/08/01 14:09:58;;;;;;;6.38;2.55;;;;;;;;;;5096559;28;20566;-60
2021/08/01 14:12:25;;;;;;;3.95;2.35;;;;;;;;;;5094307;28;20527;-60
2021/08/01 14:14:56;;;;;;;5.90;2.55;;;;;;;;;;5099326;28;20406;-60
2021/08/01 14:17:22;;;;;;;3.17;2.10;;;;;;;;;;5097683;28;20063;-60
2021/08/01 14:19:48;;;;;;;4.13;2.63;;;;;;;;;;5097492;28;20458;-60
2021/08/01 14:22:16;;;;;;;4.97;2.75;;;;;;;;;;5097640;28;20490;-61
2021/08/01 14:24:42;;;;;;;5.50;3.00;;;;;;;;;;5094103;28;20044;-60
2021/08/01 14:27:09;;;;;;;3.78;2.63;;;;;;;;;;5097526;28;20071;-61
2021/08/01 14:29:40;;;;;;;7.28;3.20;;;;;;;;;;5097966;28;20040;-62
2021/08/01 14:32:08;;;;;;;7.47;3.55;;;;;;;;;;5097119;28;20083;-62
2021/08/01 14:34:34;;;;;;;6.72;3.17;;;;;;;;;;5097260;28;20040;-62
2021/08/01 14:37:01;;;;;;;6.13;3.47;;;;;;;;;;5094968;28;20044;-62
2021/08/01 14:39:28;;;;;;;5.75;3.60;;;;;;;;;;5092792;28;20064;-63
2021/08/01 14:41:54;;;;;;;6.35;3.38;;;;;;;;;;5098039;28;20044;-63
2021/08/01 14:44:21;;;;;;;5.25;2.55;;;;;;;;;;5096973;28;20070;-63
2021/08/01 14:46:48;;;;;;;8.48;2.78;;;;;;;;;;5097062;28;20048;-63
2021/08/01 14:49:22;;;;;;;3.53;2.60;;;;;;;;;;5096991;28;20051;-63